Hovedside
METAR-TAF:

METAR-TAF

Lufthavner :

Trang, Thailand

breddegrad: 07-31N, lengdegrad: 099-37E, høyde over havet: 14 m

Gjeldene værobservasjon

Denne rapporten ble laget for 7 timer og 34 minutter siden, klokken 13:00 UTC
Vind 2 kt fra skiftende retning
Temperatur 27°C
Luftfuktighet 74%
Trykk 1007 hPa
Sikt 10 km eller mer
Få skyer i en høyde av 3000 ft

METAR: VTST 241300Z VRB02KT 9999 FEW030 27/22 Q1007 NOSIG

Tid: 03:34 (20:34 UTC)

Varsel

Denne rapporten ble laget for 3 timer og 34 minutter siden, klokken 17:00 UTC
Varsel gyldig fra 24. klokken 18 UTC til 25. klokken 18 UTC
Vind 5 kt fra Sørøst
Sikt 10 km eller mer
Spredte skyer i en høyde av 3000 ft

TAF: VTST 241700Z 2418/2518 13005KT 9999 SCT030

Værobservasjoner og værvarsel for over 4000 flyplasser (METAR- og TAF-rapporter).

Tilgjengelige stasjoner er representert av de røde og gule prikkene på kartet.

Hold musepekeren over prikken for å se navnet på stasjonen.

Klikk så for å se værobservasjoner og -varsler.

For å forandre kartet kan du klikke på den grønne knappen med svart kryss for å zoome inn, på den grønne knappen med strek for å zoome ut, eller på de grønne pilene for å se tilstøtende kart.


METAR-TAF: